createdAt,value
2022-10-19T00:02:24.582Z,70.94
2022-10-19T00:04:51.386Z,70.85
2022-10-19T00:07:18.065Z,70.78
2022-10-19T00:09:44.862Z,70.94
2022-10-19T00:12:13.138Z,71.12
2022-10-19T00:14:40.029Z,71.31
2022-10-19T00:17:06.704Z,71.27
2022-10-19T00:19:33.945Z,70.97
2022-10-19T00:22:00.546Z,71.26
2022-10-19T00:24:27.377Z,71.36
2022-10-19T00:26:54.006Z,71.02
2022-10-19T00:29:20.644Z,71.25
2022-10-19T00:31:50.354Z,71.98
2022-10-19T00:34:17.799Z,71.58
2022-10-19T00:36:44.998Z,71.46
2022-10-19T00:39:14.517Z,71.75
2022-10-19T00:41:41.787Z,71.50
2022-10-19T00:44:15.738Z,71.26
2022-10-19T00:46:45.451Z,71.21
2022-10-19T00:49:26.223Z,71.27
2022-10-19T00:52:04.435Z,71.12
2022-10-19T00:54:33.425Z,70.84
2022-10-19T00:57:00.434Z,71.08
2022-10-19T00:59:31.656Z,70.92
2022-10-19T01:02:00.592Z,70.90
2022-10-19T01:04:30.255Z,71.01
2022-10-19T01:06:58.221Z,70.89
2022-10-19T01:09:24.842Z,70.61
2022-10-19T01:11:57.279Z,70.64
2022-10-19T01:14:32.770Z,70.39
2022-10-19T01:17:17.385Z,70.79
2022-10-19T01:19:50.758Z,70.63
2022-10-19T01:22:29.285Z,70.44
2022-10-19T01:25:30.224Z,70.60
2022-10-19T01:28:24.916Z,70.70
2022-10-19T01:31:22.545Z,71.01
2022-10-19T01:34:09.741Z,70.80
2022-10-19T01:36:36.256Z,71.08
2022-10-19T01:39:11.466Z,70.81
2022-10-19T01:41:50.163Z,70.54
2022-10-19T01:44:22.972Z,70.68
2022-10-19T01:47:00.409Z,70.71
2022-10-19T01:49:43.064Z,70.92
2022-10-19T01:52:13.556Z,71.08
2022-10-19T01:54:46.754Z,70.88
2022-10-19T01:57:19.966Z,71.16
2022-10-19T01:59:48.835Z,71.09
2022-10-19T02:02:17.062Z,71.38
2022-10-19T02:04:45.261Z,71.14
2022-10-19T02:07:12.421Z,71.00
2022-10-19T02:09:39.107Z,71.48
2022-10-19T02:12:09.919Z,71.18
2022-10-19T02:14:45.019Z,70.94
2022-10-19T02:17:15.813Z,71.05
2022-10-19T02:19:42.958Z,71.23
2022-10-19T02:22:11.495Z,71.56
2022-10-19T02:24:38.243Z,71.37
2022-10-19T02:27:08.055Z,71.56
2022-10-19T02:29:36.872Z,71.71
2022-10-19T02:32:04.151Z,72.00
2022-10-19T02:34:31.548Z,71.81
2022-10-19T02:36:58.668Z,71.79
2022-10-19T02:39:25.658Z,71.47
2022-10-19T02:42:11.118Z,71.69
2022-10-19T02:44:47.544Z,71.55
2022-10-19T02:47:19.651Z,71.83
2022-10-19T02:49:47.655Z,71.69
2022-10-19T02:52:15.001Z,71.68
2022-10-19T02:54:43.961Z,71.86
2022-10-19T02:57:28.484Z,71.85
2022-10-19T02:59:55.106Z,71.89
2022-10-19T03:02:21.752Z,72.06
2022-10-19T03:07:21.379Z,71.88
2022-10-19T03:09:48.241Z,72.07
2022-10-19T03:12:15.406Z,71.89
2022-10-19T03:14:42.467Z,71.56
2022-10-19T03:17:09.832Z,71.81
2022-10-19T03:19:37.517Z,72.08
2022-10-19T03:22:05.027Z,72.22
2022-10-19T03:24:32.128Z,71.92
2022-10-19T03:26:58.795Z,71.76
2022-10-19T03:29:25.496Z,71.61
2022-10-19T03:31:52.285Z,71.19
2022-10-19T03:34:18.983Z,71.54
2022-10-19T03:36:45.736Z,71.78
2022-10-19T03:39:14.613Z,72.09
2022-10-19T03:41:42.250Z,72.29
2022-10-19T03:44:10.646Z,72.33
2022-10-19T03:46:38.442Z,72.62
2022-10-19T03:49:05.425Z,72.46
2022-10-19T03:51:33.128Z,72.55
2022-10-19T03:54:05.533Z,73.06
2022-10-19T03:56:33.380Z,73.31
2022-10-19T03:59:01.546Z,73.13
2022-10-19T04:01:34.671Z,73.39
2022-10-19T04:04:07.106Z,73.73
2022-10-19T04:06:36.707Z,73.85
2022-10-19T04:09:05.341Z,73.99
2022-10-19T04:11:33.764Z,73.92
2022-10-19T04:14:01.186Z,73.97
2022-10-19T04:16:29.806Z,74.16
2022-10-19T04:18:57.205Z,73.99
2022-10-19T04:21:28.954Z,73.88
2022-10-19T04:24:10.732Z,74.01
2022-10-19T04:26:43.285Z,73.91
2022-10-19T04:29:10.730Z,73.75
2022-10-19T04:31:38.422Z,73.52
2022-10-19T04:34:05.935Z,73.43
2022-10-19T04:36:33.037Z,73.54
2022-10-19T04:38:59.691Z,73.33
2022-10-19T04:41:26.501Z,73.15
2022-10-19T04:44:01.521Z,73.25
2022-10-19T04:46:29.623Z,73.09
2022-10-19T04:48:57.695Z,73.03
2022-10-19T04:51:25.418Z,73.16
2022-10-19T04:53:55.572Z,72.98
2022-10-19T04:56:26.656Z,73.05
2022-10-19T04:58:57.903Z,73.20
2022-10-19T05:01:26.709Z,73.07
2022-10-19T05:03:58.585Z,73.50
2022-10-19T05:06:25.976Z,73.72
2022-10-19T05:08:52.680Z,73.65
2022-10-19T05:11:19.715Z,73.39
2022-10-19T05:13:47.272Z,73.74
2022-10-19T05:16:17.862Z,74.69
2022-10-19T05:18:49.923Z,74.54
2022-10-19T05:21:18.220Z,74.83
2022-10-19T05:23:45.276Z,74.74
2022-10-19T05:26:17.746Z,75.15
2022-10-19T05:28:49.255Z,74.92
2022-10-19T05:31:18.532Z,75.10
2022-10-19T05:33:45.737Z,74.64
2022-10-19T05:36:15.233Z,74.60
2022-10-19T05:38:42.729Z,75.20
2022-10-19T05:41:10.073Z,75.47
2022-10-19T05:43:36.801Z,75.76
2022-10-19T05:46:11.532Z,75.93
2022-10-19T05:48:39.063Z,76.39
2022-10-19T05:51:08.137Z,76.39
2022-10-19T05:53:35.075Z,76.61
2022-10-19T05:56:04.509Z,76.03
2022-10-19T05:58:31.340Z,76.03
2022-10-19T06:00:59.451Z,76.66
2022-10-19T06:03:26.560Z,76.35
2022-10-19T06:05:54.497Z,76.68
2022-10-19T06:08:22.685Z,77.16
2022-10-19T06:10:50.454Z,77.31
2022-10-19T06:13:18.538Z,77.98
2022-10-19T06:15:45.220Z,77.53
2022-10-19T06:18:13.017Z,78.79
2022-10-19T06:20:41.573Z,78.40
2022-10-19T06:23:08.893Z,78.36
2022-10-19T06:25:36.103Z,78.45
2022-10-19T06:28:03.729Z,79.19
2022-10-19T06:30:30.525Z,79.07
2022-10-19T06:32:59.221Z,79.64
2022-10-19T06:35:26.023Z,79.78
2022-10-19T06:37:52.725Z,79.25
2022-10-19T06:40:19.602Z,79.73
2022-10-19T06:42:46.285Z,79.67
2022-10-19T06:45:12.877Z,81.31
2022-10-19T06:47:39.671Z,80.89
2022-10-19T06:50:06.986Z,80.50
2022-10-19T06:52:35.506Z,80.87
2022-10-19T06:55:02.317Z,80.76
2022-10-19T06:57:29.396Z,79.85
2022-10-19T06:59:56.049Z,79.58
2022-10-19T07:02:22.753Z,79.00
2022-10-19T07:04:49.519Z,79.07
2022-10-19T07:07:16.165Z,79.28
2022-10-19T07:09:42.792Z,78.99
2022-10-19T07:12:10.787Z,78.16
2022-10-19T07:14:39.567Z,77.52
2022-10-19T07:17:11.922Z,77.41
2022-10-19T07:19:38.677Z,76.67
2022-10-19T07:22:05.390Z,76.20
2022-10-19T07:24:32.033Z,75.53
2022-10-19T07:26:58.777Z,75.11
2022-10-19T07:29:25.512Z,74.41
2022-10-19T07:31:52.149Z,74.04
2022-10-19T07:34:18.990Z,73.84
2022-10-19T07:36:48.000Z,74.15
2022-10-19T07:39:16.873Z,74.56
2022-10-19T07:41:44.617Z,74.45
2022-10-19T07:44:14.793Z,74.13
2022-10-19T07:46:42.981Z,73.45
2022-10-19T07:49:18.704Z,73.56
2022-10-19T07:51:46.698Z,73.74
2022-10-19T07:54:13.718Z,73.21
2022-10-19T07:56:40.892Z,73.44
2022-10-19T07:59:07.589Z,73.84
2022-10-19T08:01:41.486Z,73.89
2022-10-19T08:06:55.166Z,73.51
2022-10-19T08:09:51.527Z,73.42
2022-10-19T08:12:13.847Z,73.46
2022-10-19T08:14:41.721Z,73.18
2022-10-19T08:17:11.453Z,73.37
2022-10-19T08:19:43.055Z,72.64
2022-10-19T08:22:10.203Z,72.24
2022-10-19T08:24:36.878Z,72.25
2022-10-19T08:27:03.711Z,72.38
2022-10-19T08:29:31.519Z,72.18
2022-10-19T08:31:59.152Z,72.64
2022-10-19T08:34:26.260Z,72.87
2022-10-19T08:36:52.890Z,73.24
2022-10-19T08:39:19.912Z,73.64
2022-10-19T08:42:05.862Z,73.22
2022-10-19T08:45:03.566Z,72.47
2022-10-19T08:47:53.735Z,72.77
2022-10-19T08:50:30.848Z,73.31
2022-10-19T08:53:07.608Z,73.82
2022-10-19T08:55:44.664Z,72.95
2022-10-19T08:58:42.168Z,72.28
2022-10-19T09:01:52.061Z,72.00
2022-10-19T09:04:33.077Z,71.74
2022-10-19T09:07:09.454Z,70.96
2022-10-19T09:12:24.823Z,69.86
2022-10-19T09:15:02.834Z,70.19
2022-10-19T09:17:31.044Z,70.04
2022-10-19T09:20:13.386Z,69.56
2022-10-19T09:22:41.936Z,69.46
2022-10-19T09:25:18.399Z,69.63
2022-10-19T09:27:48.724Z,69.67
2022-10-19T09:30:21.567Z,69.21
2022-10-19T09:32:51.956Z,69.43
2022-10-19T09:35:33.788Z,68.82
2022-10-19T09:38:01.077Z,68.80
2022-10-19T09:40:29.987Z,68.15
2022-10-19T09:42:58.228Z,67.81
2022-10-19T09:46:02.480Z,68.02
2022-10-19T09:48:41.883Z,67.93
2022-10-19T09:51:14.764Z,67.92
2022-10-19T09:53:46.115Z,67.62
2022-10-19T09:56:19.965Z,67.56
2022-10-19T09:58:49.971Z,67.15
2022-10-19T10:01:39.951Z,67.00
2022-10-19T10:04:14.926Z,66.16
2022-10-19T10:06:44.297Z,66.10
2022-10-19T10:09:19.470Z,66.28
2022-10-19T10:11:48.993Z,66.31
2022-10-19T10:14:23.232Z,66.32
2022-10-19T10:16:56.156Z,66.62
2022-10-19T10:19:28.623Z,66.74
2022-10-19T10:21:57.811Z,67.00
2022-10-19T10:24:29.979Z,66.33
2022-10-19T10:26:59.508Z,65.91
2022-10-19T10:29:28.659Z,66.09
2022-10-19T10:32:00.630Z,64.75
2022-10-19T10:34:49.351Z,64.75
2022-10-19T10:37:23.050Z,64.34
2022-10-19T10:39:55.854Z,63.70
2022-10-19T10:42:46.055Z,63.69
2022-10-19T10:45:43.792Z,63.68
2022-10-19T10:48:41.861Z,63.69
2022-10-19T10:51:40.335Z,64.59
2022-10-19T10:54:17.035Z,64.91
2022-10-19T10:56:55.178Z,64.88
2022-10-19T10:59:27.697Z,64.67
2022-10-19T11:02:36.443Z,64.28
2022-10-19T11:05:06.958Z,63.77
2022-10-19T11:07:35.918Z,63.10
2022-10-19T11:10:33.306Z,61.95
2022-10-19T11:13:29.385Z,57.28
2022-10-19T11:16:02.607Z,52.78
2022-10-19T11:18:53.516Z,50.11
2022-10-19T11:22:06.858Z,50.45
2022-10-19T11:24:55.236Z,52.10
2022-10-19T11:27:37.185Z,54.73
2022-10-19T11:30:14.868Z,55.82
2022-10-19T11:33:03.575Z,56.84
2022-10-19T11:35:49.521Z,57.64
2022-10-19T11:38:34.807Z,57.70
2022-10-19T11:41:30.862Z,57.94
2022-10-19T11:44:21.007Z,58.05
2022-10-19T11:47:06.040Z,58.34
2022-10-19T11:52:59.755Z,56.97
2022-10-19T11:55:33.219Z,57.91
2022-10-19T11:58:07.384Z,57.98
2022-10-19T12:00:48.720Z,57.56
2022-10-19T12:03:25.777Z,57.95
2022-10-19T12:06:09.231Z,57.90
2022-10-19T12:09:03.800Z,57.91
2022-10-19T12:11:33.275Z,57.39
2022-10-19T12:14:04.864Z,57.11
2022-10-19T12:16:44.181Z,57.19
2022-10-19T12:19:36.028Z,56.02
2022-10-19T12:22:05.459Z,55.57
2022-10-19T12:24:34.104Z,55.87
2022-10-19T12:27:01.216Z,55.77
2022-10-19T12:29:32.265Z,55.85
2022-10-19T12:32:02.183Z,56.35
2022-10-19T12:34:52.092Z,56.86
2022-10-19T12:37:28.277Z,57.37
2022-10-19T12:40:24.053Z,57.96
2022-10-19T12:42:56.821Z,58.45
2022-10-19T12:45:38.691Z,58.42
2022-10-19T12:48:25.621Z,57.58
2022-10-19T12:50:57.069Z,57.62
2022-10-19T12:53:40.444Z,56.83
2022-10-19T12:56:09.747Z,56.74
2022-10-19T12:58:46.735Z,57.24
2022-10-19T13:01:42.636Z,56.90
2022-10-19T13:04:16.644Z,57.49
2022-10-19T13:06:52.343Z,57.64
2022-10-19T13:09:31.263Z,58.33
2022-10-19T13:12:16.155Z,58.87
2022-10-19T13:14:55.382Z,58.91
2022-10-19T13:17:34.308Z,58.82
2022-10-19T13:20:13.493Z,58.35
2022-10-19T13:22:40.229Z,58.80
2022-10-19T13:25:40.306Z,58.33
2022-10-19T13:28:06.864Z,58.09
2022-10-19T13:30:37.024Z,57.39
2022-10-19T13:33:22.622Z,57.57
2022-10-19T13:35:49.485Z,57.75
2022-10-19T13:38:16.045Z,58.19
2022-10-19T13:40:48.871Z,58.58
2022-10-19T13:43:21.144Z,58.99
2022-10-19T13:46:00.641Z,58.74
2022-10-19T13:48:33.839Z,58.41
2022-10-19T13:51:08.082Z,58.24
2022-10-19T13:53:50.523Z,57.64
2022-10-19T13:56:55.377Z,58.04
2022-10-19T14:00:01.478Z,57.90
2022-10-19T14:02:50.858Z,57.69
2022-10-19T14:05:20.317Z,58.36
2022-10-19T14:08:05.516Z,58.00
2022-10-19T14:10:43.477Z,58.23
2022-10-19T14:13:22.269Z,58.16
2022-10-19T14:15:57.812Z,57.57
2022-10-19T14:18:29.459Z,57.13
2022-10-19T14:20:57.137Z,56.81
2022-10-19T14:23:28.424Z,56.69
2022-10-19T14:26:05.401Z,56.94
2022-10-19T14:28:33.572Z,56.88
2022-10-19T14:31:02.687Z,57.55
2022-10-19T14:33:33.670Z,57.79
2022-10-19T14:36:00.552Z,57.79
2022-10-19T14:38:40.217Z,57.96
2022-10-19T14:41:19.721Z,59.01
2022-10-19T14:43:46.353Z,58.05
2022-10-19T14:46:16.051Z,58.52
2022-10-19T14:48:48.689Z,58.36
2022-10-19T14:51:40.984Z,58.44
2022-10-19T14:54:07.614Z,58.59
2022-10-19T14:56:52.163Z,58.69
2022-10-19T14:59:26.832Z,58.63
2022-10-19T15:01:57.177Z,59.29
2022-10-19T15:04:34.242Z,59.28
2022-10-19T15:07:04.042Z,60.05
2022-10-19T15:09:47.699Z,60.82
2022-10-19T15:12:17.873Z,61.22
2022-10-19T15:14:45.970Z,61.92
2022-10-19T15:17:31.554Z,61.37
2022-10-19T15:20:02.809Z,61.55
2022-10-19T15:22:31.018Z,61.47
2022-10-19T15:25:06.556Z,61.49
2022-10-19T15:27:39.030Z,62.37
2022-10-19T15:30:17.960Z,62.56
2022-10-19T15:32:47.358Z,62.63
2022-10-19T15:35:34.411Z,63.02
2022-10-19T15:38:15.831Z,63.04
2022-10-19T15:40:44.441Z,63.75
2022-10-19T15:43:29.414Z,63.95
2022-10-19T15:46:08.595Z,64.05
2022-10-19T15:48:41.393Z,64.29
2022-10-19T15:51:22.989Z,63.85
2022-10-19T15:53:59.211Z,63.96
2022-10-19T15:56:28.136Z,64.21
2022-10-19T15:58:57.762Z,64.05
2022-10-19T16:01:27.079Z,64.30
2022-10-19T16:03:54.542Z,64.26
2022-10-19T16:06:24.671Z,64.63
2022-10-19T16:08:51.454Z,64.51
2022-10-19T16:11:20.334Z,64.53
2022-10-19T16:13:47.259Z,64.76
2022-10-19T16:16:21.807Z,64.93
2022-10-19T16:18:48.512Z,65.37
2022-10-19T16:21:16.786Z,65.17
2022-10-19T16:23:43.426Z,65.63
2022-10-19T16:26:13.475Z,65.87
2022-10-19T16:28:40.400Z,66.30
2022-10-19T16:31:07.283Z,66.44
2022-10-19T16:33:33.911Z,66.53
2022-10-19T16:36:05.170Z,67.03
2022-10-19T16:38:31.923Z,66.83
2022-10-19T16:41:03.708Z,67.83
2022-10-19T16:43:30.851Z,67.62
2022-10-19T16:45:58.244Z,67.69
2022-10-19T16:48:25.744Z,68.29
2022-10-19T16:51:17.898Z,68.22
2022-10-19T16:53:44.547Z,68.61
2022-10-19T16:56:13.392Z,68.76
2022-10-19T16:58:40.736Z,68.64
2022-10-19T17:01:11.887Z,68.70
2022-10-19T17:03:38.564Z,68.89
2022-10-19T17:06:07.111Z,69.41
2022-10-19T17:09:14.347Z,69.29
2022-10-19T17:11:24.719Z,69.33
2022-10-19T17:13:53.675Z,69.44
2022-10-19T17:16:21.673Z,69.67
2022-10-19T17:18:49.258Z,69.33
2022-10-19T17:21:19.725Z,69.18
2022-10-19T17:23:46.949Z,69.52
2022-10-19T17:26:13.946Z,70.03
2022-10-19T17:28:40.858Z,70.23
2022-10-19T17:31:10.170Z,69.86
2022-10-19T17:33:37.495Z,70.77
2022-10-19T17:36:16.294Z,69.98
2022-10-19T17:38:43.022Z,70.44
2022-10-19T17:41:12.817Z,71.70
2022-10-19T17:43:41.459Z,71.32
2022-10-19T17:46:10.700Z,71.80
2022-10-19T17:48:39.352Z,72.88
2022-10-19T17:51:14.023Z,72.83
2022-10-19T17:53:40.709Z,73.63
2022-10-19T17:56:08.164Z,73.28
2022-10-19T17:58:39.063Z,73.61
2022-10-19T18:01:07.924Z,73.37
2022-10-19T18:03:37.631Z,73.32
2022-10-19T18:06:10.690Z,73.77
2022-10-19T18:08:42.992Z,73.96
2022-10-19T18:11:12.475Z,73.62
2022-10-19T18:13:39.788Z,73.77
2022-10-19T18:16:12.951Z,74.06
2022-10-19T18:18:41.987Z,74.08
2022-10-19T18:21:11.562Z,73.72
2022-10-19T18:23:38.829Z,74.34
2022-10-19T18:26:14.892Z,74.22
2022-10-19T18:28:42.471Z,74.32
2022-10-19T18:31:11.843Z,73.86
2022-10-19T18:33:39.718Z,74.01
2022-10-19T18:36:08.233Z,74.24
2022-10-19T18:38:35.021Z,75.57
2022-10-19T18:41:06.681Z,75.51
2022-10-19T18:43:33.590Z,75.27
2022-10-19T18:46:01.004Z,75.04
2022-10-19T18:48:29.259Z,74.69
2022-10-19T18:50:56.461Z,74.13
2022-10-19T18:53:23.831Z,74.71
2022-10-19T18:56:01.702Z,75.87
2022-10-19T18:58:31.537Z,75.50
2022-10-19T19:01:09.044Z,75.37
2022-10-19T19:03:37.616Z,74.91
2022-10-19T19:06:10.063Z,74.93
2022-10-19T19:08:36.887Z,75.45
2022-10-19T19:11:18.054Z,75.65
2022-10-19T19:14:15.873Z,76.24
2022-10-19T19:16:44.255Z,76.26
2022-10-19T19:19:13.006Z,75.60
2022-10-19T19:21:43.438Z,75.44
2022-10-19T19:24:12.649Z,75.23
2022-10-19T19:26:41.641Z,75.43
2022-10-19T19:29:08.461Z,75.36
2022-10-19T19:31:35.062Z,74.89
2022-10-19T19:34:05.696Z,75.04
2022-10-19T19:36:32.460Z,75.48
2022-10-19T19:38:59.611Z,75.66
2022-10-19T19:41:26.404Z,74.79
2022-10-19T19:43:53.079Z,75.25
2022-10-19T19:46:20.185Z,75.05
2022-10-19T19:48:48.024Z,75.67
2022-10-19T19:51:20.361Z,75.25
2022-10-19T19:53:47.981Z,76.05
2022-10-19T19:56:16.409Z,75.43
2022-10-19T19:58:44.371Z,75.85
2022-10-19T20:01:13.872Z,75.71
2022-10-19T20:03:41.479Z,75.49
2022-10-19T20:06:09.516Z,75.38
2022-10-19T20:08:36.892Z,75.39
2022-10-19T20:11:09.733Z,75.14
2022-10-19T20:13:36.777Z,75.11
2022-10-19T20:16:08.480Z,76.29
2022-10-19T20:18:35.446Z,75.88
2022-10-19T20:21:03.552Z,75.92
2022-10-19T20:23:30.815Z,75.85
2022-10-19T20:25:57.574Z,76.15
2022-10-19T20:28:25.291Z,76.67
2022-10-19T20:31:06.826Z,76.20
2022-10-19T20:33:35.613Z,76.50
2022-10-19T20:36:11.058Z,75.77
2022-10-19T20:38:39.304Z,76.65
2022-10-19T20:41:08.608Z,76.95
2022-10-19T20:43:36.997Z,77.26
2022-10-19T20:46:05.782Z,76.79
2022-10-19T20:48:32.985Z,76.66
2022-10-19T20:51:13.903Z,76.69
2022-10-19T20:53:40.966Z,77.38
2022-10-19T20:56:10.169Z,77.51
2022-10-19T20:58:42.453Z,76.69
2022-10-19T21:01:18.476Z,76.10
2022-10-19T21:03:46.975Z,76.67
2022-10-19T21:06:13.902Z,76.28
2022-10-19T21:08:40.659Z,76.33
2022-10-19T21:11:18.766Z,75.94
2022-10-19T21:13:46.088Z,75.57
2022-10-19T21:16:18.088Z,76.61
2022-10-19T21:18:46.358Z,76.16
2022-10-19T21:21:21.123Z,77.42
2022-10-19T21:23:49.987Z,77.03
2022-10-19T21:26:17.329Z,76.64
2022-10-19T21:28:48.997Z,77.43
2022-10-19T21:31:17.165Z,76.81
2022-10-19T21:33:44.132Z,77.04
2022-10-19T21:36:12.384Z,76.72
2022-10-19T21:38:39.229Z,77.01
2022-10-19T21:41:08.336Z,77.06
2022-10-19T21:43:35.494Z,76.72
2022-10-19T21:46:03.771Z,76.18
2022-10-19T21:48:31.014Z,76.98
2022-10-19T21:50:57.789Z,76.58
2022-10-19T21:53:24.785Z,77.14
2022-10-19T21:55:53.155Z,77.01
2022-10-19T21:58:21.916Z,76.10
2022-10-19T22:00:49.223Z,76.14
2022-10-19T22:03:18.231Z,76.49
2022-10-19T22:05:52.195Z,76.50
2022-10-19T22:08:18.964Z,75.76
2022-10-19T22:10:45.622Z,76.29
2022-10-19T22:13:12.357Z,76.03
2022-10-19T22:15:40.028Z,76.80
2022-10-19T22:18:07.426Z,76.64
2022-10-19T22:20:39.123Z,76.86
2022-10-19T22:23:07.693Z,77.80
2022-10-19T22:25:35.330Z,77.49
2022-10-19T22:28:02.317Z,78.08
2022-10-19T22:30:29.041Z,77.13
2022-10-19T22:32:55.925Z,76.66
2022-10-19T22:35:22.596Z,76.99
2022-10-19T22:37:49.277Z,76.92
2022-10-19T22:40:15.896Z,76.53
2022-10-19T22:42:43.042Z,76.56
2022-10-19T22:45:09.679Z,76.93
2022-10-19T22:47:36.330Z,76.39
2022-10-19T22:50:03.572Z,76.91
2022-10-19T22:52:30.210Z,76.69
2022-10-19T22:54:56.858Z,76.76
2022-10-19T22:57:23.481Z,76.44
2022-10-19T22:59:50.120Z,76.06
2022-10-19T23:02:16.776Z,75.67
2022-10-19T23:04:43.472Z,76.01
2022-10-19T23:09:36.644Z,75.90
2022-10-19T23:12:03.492Z,76.02
2022-10-19T23:14:30.174Z,75.67
2022-10-19T23:16:56.841Z,75.79
2022-10-19T23:19:23.454Z,75.66
2022-10-19T23:21:50.116Z,75.49
2022-10-19T23:24:16.795Z,75.64
2022-10-19T23:26:43.442Z,75.96
2022-10-19T23:29:10.564Z,75.56
2022-10-19T23:31:38.133Z,75.83
2022-10-19T23:34:04.732Z,75.96
2022-10-19T23:36:31.338Z,75.93
2022-10-19T23:38:58.725Z,76.38
2022-10-19T23:41:25.581Z,76.46
2022-10-19T23:43:52.598Z,76.24
2022-10-19T23:46:19.641Z,77.00
2022-10-19T23:48:46.304Z,76.75
2022-10-19T23:51:16.441Z,76.88
2022-10-19T23:53:45.580Z,76.51
2022-10-19T23:56:15.608Z,76.91
2022-10-19T23:58:43.269Z,77.09
